Time;durP1;ratioP1;P1;durP2;ratioP2;P2;SDS_P1;SDS_P2;PMS_P1;PMS_P2;Temp;Humidity;BMP_temperature;BMP_pressure;BME280_temperature;BME280_humidity;BME280_pressure;Samples;Min_cycle;Max_cycle;Signal;HPM_P1;HPM_P2
2022/05/28 00:00:53;;;;;;;0.60;0.60;;;;;;;5.74;94.79;97596.72;4933154;29;20043;-82
2022/05/28 00:03:21;;;;;;;0.60;0.60;;;;;;;5.65;94.83;97585.66;4935019;29;20480;-82
2022/05/28 00:05:48;;;;;;;0.60;0.60;;;;;;;5.58;94.81;97585.00;4949080;29;20660;-83
2022/05/28 00:08:15;;;;;;;0.60;0.60;;;;;;;5.40;95.07;97575.38;4933577;29;20078;-81
2022/05/28 00:10:44;;;;;;;0.60;0.60;;;;;;;5.35;95.59;97567.28;4948995;29;20103;-82
2022/05/28 00:13:12;;;;;;;0.60;0.60;;;;;;;5.49;95.98;97567.75;4934484;29;20107;-82
2022/05/28 00:15:41;;;;;;;0.60;0.60;;;;;;;5.50;95.95;97574.72;4933335;29;20179;-81
2022/05/28 00:18:09;;;;;;;0.50;0.50;;;;;;;5.38;96.20;97559.56;4934457;29;20052;-83
2022/05/28 00:20:37;;;;;;;0.50;0.50;;;;;;;5.48;96.31;97553.56;4935029;29;20406;-84
2022/05/28 00:23:04;;;;;;;0.60;0.60;;;;;;;5.45;96.43;97546.03;4934184;29;20081;-82
2022/05/28 00:25:32;;;;;;;0.60;0.60;;;;;;;5.47;96.57;97541.25;4934552;29;20056;-82
2022/05/28 00:27:59;;;;;;;0.60;0.60;;;;;;;5.42;96.51;97531.28;4933601;29;20043;-82
2022/05/28 00:30:27;;;;;;;0.60;0.60;;;;;;;5.48;96.46;97540.19;4935151;29;20118;-82
2022/05/28 00:32:54;;;;;;;0.60;0.60;;;;;;;5.27;96.28;97508.88;4934617;29;20578;-82
2022/05/28 00:35:21;;;;;;;0.60;0.60;;;;;;;5.43;96.25;97538.25;4934639;29;20063;-82
2022/05/28 00:37:48;;;;;;;0.60;0.60;;;;;;;5.32;96.09;97522.31;4932490;29;20126;-81
2022/05/28 00:40:20;;;;;;;0.60;0.60;;;;;;;5.37;96.06;97525.88;4915129;29;20443;-83
2022/05/28 00:42:47;;;;;;;0.60;0.60;;;;;;;5.31;96.15;97523.34;4915096;29;20055;-82
2022/05/28 00:45:15;;;;;;;0.60;0.60;;;;;;;5.26;96.06;97512.59;4883307;29;20052;-82
2022/05/28 00:47:48;;;;;;;0.50;0.50;;;;;;;5.24;96.03;97523.56;4914967;29;20059;-82
2022/05/28 00:50:16;;;;;;;0.60;0.60;;;;;;;5.36;95.99;97540.28;4915009;29;20123;-82
2022/05/28 00:52:44;;;;;;;0.60;0.60;;;;;;;5.24;95.84;97520.03;4914505;29;20300;-82
2022/05/28 00:55:12;;;;;;;0.60;0.60;;;;;;;5.30;95.57;97543.94;4915164;29;20056;-82
2022/05/28 00:57:40;;;;;;;0.70;0.70;;;;;;;5.20;95.65;97515.19;4915306;29;20055;-84
2022/05/28 01:00:12;;;;;;;0.60;0.60;;;;;;;5.15;95.19;97522.34;4918947;29;20531;-82
2022/05/28 01:03:01;;;;;;;0.60;0.60;;;;;;;5.19;95.37;97529.63;4925443;29;20043;-83
2022/05/28 01:05:39;;;;;;;0.50;0.50;;;;;;;5.36;95.28;97528.78;4917252;29;20472;-81
2022/05/28 01:08:33;;;;;;;0.60;0.60;;;;;;;5.49;95.17;97528.41;4933305;29;20104;-83
2022/05/28 01:11:08;;;;;;;0.60;0.60;;;;;;;5.43;94.75;97497.31;4913007;29;20102;-82
2022/05/28 01:13:43;;;;;;;0.60;0.60;;;;;;;5.63;94.53;97518.97;4917038;29;20131;-82
2022/05/28 01:16:17;;;;;;;0.60;0.60;;;;;;;5.68;94.26;97512.88;4926733;29;20062;-81
2022/05/28 01:18:55;;;;;;;0.60;0.60;;;;;;;5.63;94.00;97499.44;4904902;29;20052;-82
2022/05/28 01:21:48;;;;;;;0.52;0.52;;;;;;;5.76;93.98;97516.97;4910303;29;20401;-82
2022/05/28 01:24:42;;;;;;;0.60;0.60;;;;;;;5.76;93.73;97522.34;4922660;29;20515;-83
2022/05/28 01:27:13;;;;;;;0.60;0.60;;;;;;;5.76;93.57;97492.88;4930078;29;20104;-82
2022/05/28 01:29:44;;;;;;;0.60;0.60;;;;;;;5.87;93.52;97510.66;4926065;29;20634;-82
2022/05/28 01:32:12;;;;;;;0.60;0.60;;;;;;;5.87;93.44;97502.63;4951936;29;20151;-82
2022/05/28 01:34:40;;;;;;;0.60;0.60;;;;;;;5.77;93.04;97481.94;4951994;29;20055;-82
2022/05/28 01:37:09;;;;;;;0.60;0.60;;;;;;;5.89;92.93;97494.38;4935961;29;20070;-82
2022/05/28 01:39:39;;;;;;;0.50;0.50;;;;;;;5.79;92.80;97489.69;4937630;29;20050;-82
2022/05/28 01:42:07;;;;;;;0.60;0.60;;;;;;;5.76;92.85;97480.31;4935696;29;20051;-82
2022/05/28 01:44:36;;;;;;;0.60;0.60;;;;;;;5.79;92.70;97473.63;4936309;29;20067;-81
2022/05/28 01:47:03;;;;;;;0.60;0.60;;;;;;;5.98;92.73;97477.63;4951651;29;20044;-82
2022/05/28 01:49:32;;;;;;;0.60;0.60;;;;;;;6.13;92.40;97478.84;4936101;29;20102;-82
2022/05/28 01:52:00;;;;;;;0.60;0.60;;;;;;;6.26;92.25;97473.09;4920271;29;20056;-83
2022/05/28 01:54:30;;;;;;;0.60;0.60;;;;;;;6.30;92.06;97460.78;4951614;29;20103;-82
2022/05/28 01:56:57;;;;;;;0.60;0.60;;;;;;;6.55;91.39;97487.00;4935670;29;20110;-83
2022/05/28 01:59:31;;;;;;;0.60;0.60;;;;;;;6.68;91.04;97475.03;4937014;29;20082;-82
2022/05/28 02:02:01;;;;;;;0.60;0.60;;;;;;;6.73;90.22;97464.34;4935514;29;20066;-82
2022/05/28 02:04:30;;;;;;;0.60;0.60;;;;;;;6.84;89.83;97466.06;4935557;29;20120;-82
2022/05/28 02:06:57;;;;;;;0.60;0.60;;;;;;;7.03;89.31;97481.72;4936608;29;20138;-82
2022/05/28 02:09:31;;;;;;;0.60;0.60;;;;;;;7.12;88.58;97480.19;4935707;29;20056;-81
2022/05/28 02:12:13;;;;;;;0.70;0.70;;;;;;;7.08;88.10;97461.09;4935818;29;20055;-83
2022/05/28 02:15:08;;;;;;;0.60;0.60;;;;;;;7.22;87.74;97480.25;4936359;29;20130;-82
2022/05/28 02:17:35;;;;;;;0.70;0.70;;;;;;;7.27;87.03;97477.59;4936983;29;20047;-81
2022/05/28 02:20:17;;;;;;;0.50;0.50;;;;;;;7.30;86.88;97478.94;4936075;29;20055;-83
2022/05/28 02:23:11;;;;;;;0.60;0.60;;;;;;;7.16;86.77;97459.78;4936141;29;20043;-83
2022/05/28 02:25:45;;;;;;;0.60;0.60;;;;;;;7.27;87.04;97480.25;4936351;29;20047;-83
2022/05/28 02:28:13;;;;;;;0.60;0.60;;;;;;;7.29;87.09;97482.66;4950783;29;20059;-83
2022/05/28 02:31:02;;;;;;;0.57;0.57;;;;;;;7.28;86.85;97487.25;4935348;29;20067;-82
2022/05/28 02:33:32;;;;;;;0.60;0.60;;;;;;;7.32;86.89;97482.16;4935103;29;20047;-83
2022/05/28 02:36:01;;;;;;;0.60;0.60;;;;;;;7.23;86.74;97463.06;4919754;29;20056;-82
2022/05/28 02:38:29;;;;;;;0.50;0.50;;;;;;;7.35;86.63;97482.44;4935925;29;20154;-81
2022/05/28 02:40:57;;;;;;;0.50;0.50;;;;;;;7.41;86.45;97485.97;4936052;29;20070;-83
2022/05/28 02:43:24;;;;;;;0.50;0.50;;;;;;;7.45;86.54;97472.84;4936278;29;20063;-82
2022/05/28 02:45:51;;;;;;;0.60;0.60;;;;;;;7.30;86.39;97444.84;4935805;29;20066;-82
2022/05/28 02:48:19;;;;;;;0.50;0.50;;;;;;;7.46;86.42;97466.41;4936240;29;20423;-82
2022/05/28 02:50:46;;;;;;;0.60;0.60;;;;;;;7.45;86.06;97462.91;4934718;29;20056;-82
2022/05/28 02:53:13;;;;;;;0.60;0.60;;;;;;;7.56;86.10;97482.53;4935848;29;20056;-83
2022/05/28 02:55:41;;;;;;;0.60;0.60;;;;;;;7.58;86.04;97473.16;4934434;29;20071;-82
2022/05/28 02:58:12;;;;;;;0.60;0.60;;;;;;;7.59;86.18;97473.97;4934598;29;20048;-81
2022/05/28 03:00:40;;;;;;;0.60;0.60;;;;;;;7.49;86.27;97460.50;4935940;29;20052;-81
2022/05/28 03:03:07;;;;;;;0.60;0.60;;;;;;;7.52;86.06;97460.78;4935746;29;20139;-81
2022/05/28 03:05:34;;;;;;;0.60;0.60;;;;;;;7.44;86.09;97450.53;4934662;29;20062;-82
2022/05/28 03:08:01;;;;;;;0.60;0.60;;;;;;;7.56;86.06;97461.88;4935538;29;20397;-81
2022/05/28 03:10:30;;;;;;;0.60;0.60;;;;;;;7.51;85.98;97439.56;4935870;29;20043;-82
2022/05/28 03:12:58;;;;;;;0.60;0.60;;;;;;;7.65;85.77;97429.16;4935456;29;20051;-82
2022/05/28 03:15:25;;;;;;;0.60;0.60;;;;;;;8.10;85.02;97458.00;4934343;29;20142;-83
2022/05/28 03:17:52;;;;;;;0.60;0.60;;;;;;;8.29;84.23;97444.06;4935452;29;20070;-83
2022/05/28 03:20:19;;;;;;;0.60;0.60;;;;;;;8.46;83.62;97447.31;4935857;29;20048;-83
2022/05/28 03:22:46;;;;;;;0.60;0.60;;;;;;;8.65;82.92;97442.19;4934279;29;20110;-83
2022/05/28 03:25:13;;;;;;;0.50;0.50;;;;;;;8.78;82.24;97448.91;4934255;29;20530;-81
2022/05/28 03:27:40;;;;;;;0.57;0.57;;;;;;;8.83;81.94;97446.22;4935315;29;20051;-83
2022/05/28 03:30:08;;;;;;;0.60;0.60;;;;;;;8.87;81.44;97429.28;4935132;29;20056;-82
2022/05/28 03:32:35;;;;;;;0.60;0.60;;;;;;;8.93;80.88;97438.13;4933997;29;20474;-81
2022/05/28 03:35:03;;;;;;;0.50;0.50;;;;;;;8.81;80.58;97432.22;4934798;29;20059;-82
2022/05/28 03:37:30;;;;;;;0.60;0.60;;;;;;;8.48;81.18;97409.41;4934867;29;20056;-82
2022/05/28 03:39:57;;;;;;;0.50;0.50;;;;;;;8.42;81.68;97408.59;4935003;29;20051;-83
2022/05/28 03:42:24;;;;;;;0.60;0.60;;;;;;;8.52;82.17;97434.69;4933752;29;20048;-82
2022/05/28 03:44:51;;;;;;;0.50;0.50;;;;;;;8.43;82.12;97413.72;4934810;29;20511;-82
2022/05/28 03:47:18;;;;;;;0.60;0.60;;;;;;;8.35;82.17;97416.91;4935298;29;20048;-83
2022/05/28 03:49:46;;;;;;;0.50;0.50;;;;;;;8.47;82.72;97435.50;4935301;29;20059;-82
2022/05/28 03:52:16;;;;;;;0.50;0.50;;;;;;;8.43;82.82;97442.47;4949349;29;20087;-82
2022/05/28 03:54:43;;;;;;;0.50;0.50;;;;;;;8.35;82.94;97430.34;4949143;29;20151;-83
2022/05/28 03:57:31;;;;;;;0.50;0.50;;;;;;;8.41;83.03;97436.56;4934622;29;20143;-82
2022/05/28 03:59:59;;;;;;;0.55;0.55;;;;;;;8.32;83.03;97422.81;4935388;29;20075;-83
2022/05/28 04:02:27;;;;;;;0.55;0.55;;;;;;;8.29;83.60;97434.09;4935149;29;20048;-83
2022/05/28 04:04:54;;;;;;;0.60;0.60;;;;;;;8.22;83.77;97420.91;4933250;29;20050;-83
2022/05/28 04:07:21;;;;;;;0.60;0.60;;;;;;;8.22;83.82;97418.22;4934761;29;20127;-83
2022/05/28 04:09:49;;;;;;;0.50;0.50;;;;;;;8.20;84.22;97423.09;4933528;29;20062;-81
2022/05/28 04:12:16;;;;;;;0.60;0.60;;;;;;;8.24;84.46;97429.53;4933193;29;20075;-83
2022/05/28 04:14:44;;;;;;;0.60;0.60;;;;;;;8.22;84.54;97407.47;4933348;29;20051;-82
2022/05/28 04:17:12;;;;;;;0.50;0.50;;;;;;;8.44;84.59;97418.00;4934359;29;20414;-82
2022/05/28 04:19:39;;;;;;;0.60;0.60;;;;;;;8.59;84.10;97425.28;4934823;29;20542;-84
2022/05/28 04:22:07;;;;;;;0.60;0.60;;;;;;;8.71;83.97;97416.09;4934432;29;20052;-83
2022/05/28 04:24:34;;;;;;;0.60;0.60;;;;;;;8.91;83.57;97410.69;4934509;29;20479;-84
2022/05/28 04:27:02;;;;;;;0.60;0.60;;;;;;;9.05;83.70;97424.41;4934421;29;20047;-82
2022/05/28 04:29:29;;;;;;;0.60;0.60;;;;;;;9.13;83.35;97414.94;4934586;29;20463;-82
2022/05/28 04:31:56;;;;;;;0.60;0.60;;;;;;;9.14;83.43;97406.63;4932893;29;20047;-84
2022/05/28 04:34:23;;;;;;;0.50;0.50;;;;;;;9.21;82.75;97425.16;4934364;29;20098;-84
2022/05/28 04:36:50;;;;;;;0.57;0.57;;;;;;;9.16;83.17;97411.72;4932867;29;20067;-82
2022/05/28 04:39:17;;;;;;;0.60;0.60;;;;;;;9.08;83.23;97397.72;4933815;29;20134;-81
2022/05/28 04:41:44;;;;;;;0.55;0.55;;;;;;;9.22;83.39;97419.50;4934188;29;20055;-83
2022/05/28 04:44:12;;;;;;;0.60;0.60;;;;;;;9.16;83.54;97414.41;4932787;29;20056;-83
2022/05/28 04:46:39;;;;;;;0.50;0.50;;;;;;;9.07;83.63;97398.81;4948857;29;20052;-84
2022/05/28 04:49:06;;;;;;;0.50;0.50;;;;;;;9.05;83.52;97397.47;4932878;29;20147;-81
2022/05/28 04:51:33;;;;;;;0.50;0.50;;;;;;;9.05;84.23;97400.16;4932992;29;20048;-83
2022/05/28 04:54:00;;;;;;;0.50;0.50;;;;;;;8.97;84.62;97395.34;4933612;29;20078;-84
2022/05/28 04:56:28;;;;;;;0.55;0.55;;;;;;;9.00;84.87;97411.75;4935005;29;20062;-84
2022/05/28 04:58:55;;;;;;;0.50;0.50;;;;;;;9.06;85.15;97410.69;4941493;29;20058;-84
2022/05/28 05:01:23;;;;;;;0.50;0.50;;;;;;;8.95;85.13;97392.13;4953773;29;20526;-84
2022/05/28 05:03:51;;;;;;;0.60;0.60;;;;;;;8.96;85.32;97399.13;4933064;29;20047;-84
2022/05/28 05:06:18;;;;;;;0.50;0.50;;;;;;;8.98;85.35;97405.81;4932447;29;20143;-84
2022/05/28 05:08:46;;;;;;;0.60;0.60;;;;;;;9.03;85.70;97419.28;4933908;29;20048;-83
2022/05/28 05:11:13;;;;;;;0.55;0.55;;;;;;;8.85;85.95;97403.72;4948425;29;20059;-82
2022/05/28 05:13:40;;;;;;;0.55;0.55;;;;;;;8.84;86.74;97429.03;4933620;29;20468;-82
2022/05/28 05:16:13;;;;;;;0.60;0.60;;;;;;;8.87;87.46;97423.09;4948235;29;20055;-82
2022/05/28 05:18:41;;;;;;;0.60;0.60;;;;;;;8.74;87.22;97419.06;4933740;29;20123;-82
2022/05/28 05:21:11;;;;;;;0.60;0.60;;;;;;;8.71;88.01;97416.09;4948258;29;20056;-84
2022/05/28 05:23:40;;;;;;;0.50;0.50;;;;;;;8.87;88.18;97421.19;4933879;29;20052;-84
2022/05/28 05:26:11;;;;;;;0.50;0.50;;;;;;;8.87;88.13;97417.72;4945817;29;20122;-83
2022/05/28 05:28:39;;;;;;;0.50;0.50;;;;;;;8.86;88.17;97422.28;4923157;29;20051;-83
2022/05/28 05:31:11;;;;;;;0.50;0.50;;;;;;;8.67;88.38;97403.19;4904734;29;20052;-83
2022/05/28 05:33:38;;;;;;;0.50;0.50;;;;;;;8.87;88.52;97410.44;4915874;29;20106;-82
2022/05/28 05:36:08;;;;;;;0.50;0.50;;;;;;;8.93;88.59;97397.78;4913367;29;20063;-84
2022/05/28 05:38:36;;;;;;;0.60;0.60;;;;;;;9.06;88.28;97416.06;4902244;29;20415;-83
2022/05/28 05:41:03;;;;;;;0.50;0.50;;;;;;;9.08;87.79;97413.06;4920119;29;20135;-81
2022/05/28 05:43:31;;;;;;;0.50;0.50;;;;;;;8.97;87.49;97390.78;4910911;29;20059;-81
2022/05/28 05:46:00;;;;;;;0.52;0.52;;;;;;;8.95;87.75;97392.13;4923113;29;20044;-82
2022/05/28 05:48:28;;;;;;;0.50;0.50;;;;;;;9.11;88.00;97404.44;4909645;29;20044;-83
2022/05/28 05:50:55;;;;;;;0.50;0.50;;;;;;;9.21;88.06;97409.00;4922277;29;20534;-83
2022/05/28 05:53:22;;;;;;;0.50;0.50;;;;;;;9.15;87.53;97397.44;4912604;29;20052;-84
2022/05/28 05:55:49;;;;;;;0.50;0.50;;;;;;;9.32;87.46;97407.91;4914855;29;20052;-84
2022/05/28 05:58:16;;;;;;;0.57;0.57;;;;;;;9.26;87.03;97382.06;4915476;29;20052;-82
2022/05/28 06:00:44;;;;;;;0.60;0.60;;;;;;;9.26;86.30;97398.22;4910843;29;20060;-84
2022/05/28 06:03:16;;;;;;;0.60;0.60;;;;;;;9.43;86.43;97398.69;4910547;29;20048;-82
2022/05/28 06:05:45;;;;;;;0.60;0.60;;;;;;;9.38;85.51;97395.22;4912134;29;20106;-82
2022/05/28 06:08:15;;;;;;;0.50;0.50;;;;;;;9.33;85.83;97412.19;4914760;29;20052;-83
2022/05/28 06:10:43;;;;;;;0.50;0.50;;;;;;;9.20;86.14;97400.13;4923741;29;20048;-83
2022/05/28 06:13:10;;;;;;;0.60;0.60;;;;;;;9.25;85.86;97418.94;4920790;29;20623;-82
2022/05/28 06:15:43;;;;;;;0.60;0.60;;;;;;;9.27;85.97;97400.63;4915805;29;20059;-84
2022/05/28 06:18:12;;;;;;;0.60;0.60;;;;;;;9.49;85.57;97426.38;4922553;29;20063;-85
2022/05/28 06:20:40;;;;;;;0.55;0.55;;;;;;;9.49;85.33;97408.34;4932260;29;20057;-85
2022/05/28 06:23:07;;;;;;;0.60;0.60;;;;;;;9.60;84.66;97392.97;4923623;29;20048;-84
2022/05/28 06:25:37;;;;;;;0.50;0.50;;;;;;;9.87;84.83;97424.84;4919965;29;20428;-86
2022/05/28 06:28:05;;;;;;;0.50;0.50;;;;;;;10.06;83.94;97430.41;4578218;28;10000390;-84
2022/05/28 06:30:33;;;;;;;0.50;0.50;;;;;;;10.05;81.96;97436.06;4915909;29;20147;-85
2022/05/28 06:33:00;;;;;;;0.50;0.50;;;;;;;10.02;81.22;97415.06;4927160;29;20048;-86
2022/05/28 06:35:31;;;;;;;0.52;0.52;;;;;;;9.97;80.34;97424.78;4921612;29;20440;-84
2022/05/28 06:37:58;;;;;;;0.50;0.50;;;;;;;10.08;80.83;97430.16;4924293;29;20055;-85
2022/05/28 06:40:26;;;;;;;0.50;0.50;;;;;;;10.05;80.60;97399.16;4927566;29;20048;-85
2022/05/28 06:42:56;;;;;;;0.60;0.60;;;;;;;10.27;80.24;97433.78;4914862;29;20087;-84
2022/05/28 06:45:24;;;;;;;0.50;0.50;;;;;;;10.33;79.64;97434.56;4920572;29;20052;-86
2022/05/28 06:47:51;;;;;;;0.50;0.50;;;;;;;10.36;79.18;97421.34;4920715;29;20052;-86
2022/05/28 06:53:09;;;;;;;0.60;0.60;;;;;;;10.78;76.51;97436.06;4921970;29;20507;-87
2022/05/28 06:55:37;;;;;;;0.60;0.60;;;;;;;10.90;75.82;97433.00;4916731;29;20048;-85
2022/05/28 06:58:06;;;;;;;0.60;0.60;;;;;;;10.93;74.88;97412.75;4913969;29;20091;-85
2022/05/28 07:00:34;;;;;;;0.60;0.60;;;;;;;10.96;74.88;97421.09;4922935;29;20060;-86
2022/05/28 07:03:03;;;;;;;0.57;0.57;;;;;;;10.94;74.22;97425.13;4912139;29;20424;-86
2022/05/28 07:05:30;;;;;;;0.55;0.55;;;;;;;11.11;72.80;97446.31;4912493;29;20048;-85
2022/05/28 07:07:58;;;;;;;0.60;0.60;;;;;;;11.11;71.09;97441.69;4920085;29;20087;-87
2022/05/28 07:10:25;;;;;;;0.50;0.50;;;;;;;11.04;71.80;97442.06;4923900;29;20475;-87
2022/05/28 07:12:52;;;;;;;0.50;0.50;;;;;;;11.05;71.76;97449.06;4913501;29;20047;-85
2022/05/28 07:15:19;;;;;;;0.60;0.60;;;;;;;10.74;70.75;97432.34;4922606;29;20055;-86
2022/05/28 07:17:48;;;;;;;0.50;0.50;;;;;;;10.71;71.91;97472.56;4901497;29;20508;-91
2022/05/28 07:20:16;;;;;;;0.60;0.60;;;;;;;10.68;72.75;97471.25;4915549;29;20100;-87
2022/05/28 07:22:43;;;;;;;0.60;0.60;;;;;;;10.63;71.13;97466.72;4928283;29;20088;-88
2022/05/28 07:25:10;;;;;;;0.50;0.50;;;;;;;10.72;71.42;97466.91;4919568;29;20044;-88
2022/05/28 07:27:42;;;;;;;0.60;0.60;;;;;;;11.05;70.60;97467.94;4920848;29;20052;-89
2022/05/28 07:30:10;;;;;;;0.60;0.60;;;;;;;11.27;70.03;97462.06;4914272;29;20052;-88
2022/05/28 07:32:37;;;;;;;0.60;0.60;;;;;;;11.56;69.52;97472.00;4916622;29;20079;-88
2022/05/28 07:35:05;;;;;;;0.50;0.50;;;;;;;11.77;68.97;97469.06;4921258;29;20052;-88
2022/05/28 07:37:33;;;;;;;0.60;0.60;;;;;;;11.80;68.45;97458.47;4926782;29;20091;-87
2022/05/28 07:40:00;;;;;;;0.60;0.60;;;;;;;11.99;67.92;97465.84;4924563;29;20561;-90
2022/05/28 07:42:29;;;;;;;0.60;0.60;;;;;;;11.96;66.97;97486.16;4933209;29;20143;-89
2022/05/28 07:44:56;;;;;;;0.60;0.60;;;;;;;11.77;67.53;97482.56;4914491;29;20147;-87
2022/05/28 07:47:28;;;;;;;0.60;0.60;;;;;;;11.81;67.05;97491.72;4925927;29;20190;-89
2022/05/28 07:49:56;;;;;;;0.60;0.60;;;;;;;11.76;66.71;97486.38;4930766;29;20051;-87
2022/05/28 07:52:23;;;;;;;0.60;0.60;;;;;;;11.70;66.20;97505.34;4930184;29;20055;-87
2022/05/28 07:54:50;;;;;;;0.50;0.50;;;;;;;11.59;67.06;97505.75;4921170;29;20046;-88
2022/05/28 07:57:20;;;;;;;0.60;0.60;;;;;;;11.77;66.12;97513.09;4913708;29;20091;-88
2022/05/28 07:59:47;;;;;;;0.60;0.60;;;;;;;11.96;65.14;97496.16;4920199;29;20574;-92
2022/05/28 08:02:15;;;;;;;0.50;0.50;;;;;;;11.88;65.60;97508.41;4911443;29;20467;-88
2022/05/28 08:04:45;;;;;;;0.50;0.50;;;;;;;11.76;66.30;97505.28;4911492;29;20052;-89
2022/05/28 08:07:13;;;;;;;0.50;0.50;;;;;;;11.85;67.37;97511.66;4911509;29;20195;-87
2022/05/28 08:09:40;;;;;;;0.60;0.60;;;;;;;11.90;67.01;97506.22;4914569;29;20468;-89
2022/05/28 08:12:08;;;;;;;0.60;0.60;;;;;;;12.15;66.43;97510.50;4926569;29;20048;-89
2022/05/28 08:14:35;;;;;;;0.60;0.60;;;;;;;12.28;65.76;97527.91;4915699;29;20075;-89
2022/05/28 08:17:04;;;;;;;0.60;0.60;;;;;;;12.18;64.48;97545.09;4920995;29;20111;-90
2022/05/28 08:19:33;;;;;;;0.50;0.50;;;;;;;12.36;64.05;97546.19;4915285;29;20080;-86
2022/05/28 08:24:52;;;;;;;0.50;0.50;;;;;;;12.53;65.19;97540.25;4916702;29;20111;-88
2022/05/28 08:27:24;;;;;;;0.50;0.50;;;;;;;12.23;65.81;97550.44;4888678;29;20438;-88
2022/05/28 08:29:51;;;;;;;0.50;0.50;;;;;;;11.75;66.41;97552.31;4864682;29;20062;-86
2022/05/28 08:32:19;;;;;;;0.50;0.50;;;;;;;11.19;68.19;97562.59;4922193;29;20086;-87
2022/05/28 08:34:55;;;;;;;0.50;0.50;;;;;;;10.75;69.35;97555.38;4873733;29;20507;-90
2022/05/28 08:37:22;;;;;;;0.50;0.50;;;;;;;10.44;70.63;97562.88;4863845;29;20104;-91
2022/05/28 08:39:49;;;;;;;0.47;0.47;;;;;;;10.20;72.31;97568.91;4874121;29;20408;-92
2022/05/28 08:42:19;;;;;;;0.43;0.43;;;;;;;10.16;73.38;97575.91;4895331;29;20520;-91
2022/05/28 08:44:46;;;;;;;0.50;0.50;;;;;;;10.15;73.70;97581.56;4881368;29;20048;-89
2022/05/28 08:47:28;;;;;;;0.50;0.50;;;;;;;9.93;74.31;97585.44;4887650;29;20473;-87
2022/05/28 08:49:57;;;;;;;0.50;0.50;;;;;;;9.30;77.04;97576.97;4899327;29;20138;-90
2022/05/28 08:52:47;;;;;;;0.60;0.60;;;;;;;9.22;79.30;97590.97;4916213;29;20052;-92
2022/05/28 08:55:22;;;;;;;0.50;0.50;;;;;;;9.05;81.08;97600.13;4906464;29;20062;-89
2022/05/28 08:58:01;;;;;;;0.60;0.60;;;;;;;9.00;81.93;97567.81;4893460;29;20054;-91
2022/05/28 09:00:57;;;;;;;0.60;0.60;;;;;;;9.33;81.37;97595.25;4916919;29;20063;-85
2022/05/28 09:03:31;;;;;;;0.60;0.60;;;;;;;9.51;80.73;97591.19;4914383;29;20524;-84
2022/05/28 09:06:08;;;;;;;0.60;0.60;;;;;;;9.50;80.43;97598.47;4914320;29;20056;-90
2022/05/28 09:08:39;;;;;;;0.50;0.50;;;;;;;9.26;79.44;97581.25;4905427;29;20753;-90
2022/05/28 09:11:24;;;;;;;0.50;0.50;;;;;;;9.32;79.35;97601.75;4921318;29;20076;-90
2022/05/28 09:13:53;;;;;;;0.50;0.50;;;;;;;9.40;79.63;97614.66;4899499;29;20454;-89
2022/05/28 09:16:31;;;;;;;0.50;0.50;;;;;;;9.35;80.50;97611.97;4915829;29;20515;-89
2022/05/28 09:19:05;;;;;;;0.50;0.50;;;;;;;9.14;82.58;97605.78;4914272;29;20067;-86
2022/05/28 09:21:32;;;;;;;0.50;0.50;;;;;;;9.12;84.44;97618.69;4922044;29;20056;-88
2022/05/28 09:24:05;;;;;;;0.52;0.52;;;;;;;8.99;85.59;97609.28;4926669;29;20051;-89
2022/05/28 09:27:05;;;;;;;0.60;0.60;;;;;;;9.16;87.21;97624.34;4934082;29;20058;-90
2022/05/28 09:29:50;;;;;;;0.50;0.50;;;;;;;9.05;87.15;97626.22;4892674;29;20109;-89
2022/05/28 09:32:55;;;;;;;0.50;0.50;;;;;;;9.14;87.26;97635.38;4891774;29;20063;-87
2022/05/28 09:35:34;;;;;;;0.40;0.40;;;;;;;9.21;87.45;97627.84;4870260;29;20059;-90
2022/05/28 09:38:10;;;;;;;0.50;0.50;;;;;;;9.24;87.00;97631.88;4894965;29;20060;-89
2022/05/28 09:40:47;;;;;;;0.50;0.50;;;;;;;9.27;87.15;97631.34;4893888;29;20129;-90
2022/05/28 09:43:36;;;;;;;0.50;0.50;;;;;;;9.37;86.88;97641.28;4897224;29;20093;-90
2022/05/28 09:46:26;;;;;;;0.50;0.50;;;;;;;9.48;86.09;97649.09;4898234;29;20060;-90
2022/05/28 09:49:04;;;;;;;0.60;0.60;;;;;;;9.94;84.57;97664.41;4897516;29;20052;-88
2022/05/28 09:51:33;;;;;;;0.70;0.70;;;;;;;10.38;83.07;97653.78;4881044;29;20056;-89
2022/05/28 09:54:16;;;;;;;0.60;0.60;;;;;;;10.72;81.06;97652.28;4893005;29;20097;-89
2022/05/28 09:56:52;;;;;;;0.60;0.60;;;;;;;11.25;76.76;97630.88;4880258;29;20105;-91
2022/05/28 09:59:35;;;;;;;0.60;0.60;;;;;;;11.73;75.42;97641.00;4867293;29;20081;-89
2022/05/28 10:02:07;;;;;;;0.70;0.70;;;;;;;12.07;72.81;97652.56;4890684;29;20517;-90
2022/05/28 10:04:49;;;;;;;0.80;0.80;;;;;;;12.88;71.50;97658.06;4898994;29;20058;-89
2022/05/28 10:07:28;;;;;;;0.60;0.60;;;;;;;13.49;68.31;97663.69;4939298;29;20154;-93
2022/05/28 10:09:55;;;;;;;0.60;0.60;;;;;;;13.21;66.33;97658.91;4928525;29;20147;-91
2022/05/28 10:12:30;;;;;;;0.70;0.70;;;;;;;13.38;63.60;97673.88;4930571;29;20055;-92
2022/05/28 10:15:04;;;;;;;0.90;0.90;;;;;;;13.82;61.94;97638.19;4921245;29;20044;-89
2022/05/28 10:17:33;;;;;;;0.60;0.60;;;;;;;14.34;61.71;97665.16;4926237;29;20071;-87
2022/05/28 10:20:04;;;;;;;0.60;0.60;;;;;;;14.37;61.47;97661.03;4921304;29;20453;-88
2022/05/28 10:22:32;;;;;;;0.60;0.60;;;;;;;14.33;58.40;97655.41;4930740;29;20420;-89
2022/05/28 10:25:02;;;;;;;0.50;0.50;;;;;;;13.70;60.66;97670.41;4898852;29;20393;-87
2022/05/28 10:27:54;;;;;;;0.70;0.70;;;;;;;13.99;60.44;97669.34;4913224;29;20466;-93
2022/05/28 10:30:34;;;;;;;0.50;0.50;;;;;;;13.69;59.35;97679.59;4915287;29;20543;-91
2022/05/28 10:33:08;;;;;;;0.50;0.50;;;;;;;12.66;61.96;97657.81;4930777;29;20068;-91
2022/05/28 10:35:36;;;;;;;0.60;0.60;;;;;;;12.49;63.15;97664.53;4924809;29;20091;-90
2022/05/28 10:38:12;;;;;;;0.70;0.70;;;;;;;13.58;59.70;97691.75;4938712;29;20363;-91
2022/05/28 10:41:32;;;;;;;0.90;0.90;;;;;;;14.51;56.71;97669.97;4918257;29;20052;-91
2022/05/28 10:43:59;;;;;;;0.90;0.90;;;;;;;15.13;55.96;97683.88;4861737;29;20053;-91
2022/05/28 10:46:46;;;;;;;0.80;0.80;;;;;;;15.51;53.55;97683.53;4854609;29;20049;-91
2022/05/28 10:49:29;;;;;;;0.80;0.80;;;;;;;15.79;54.10;97689.66;4866611;29;20065;-93
2022/05/28 10:52:34;;;;;;;0.65;0.65;;;;;;;16.27;52.22;97692.81;4880689;29;20065;-92
2022/05/28 10:55:24;;;;;;;0.70;0.70;;;;;;;15.06;54.27;97672.63;4826503;29;20057;-92
2022/05/28 10:58:09;;;;;;;0.90;0.90;;;;;;;16.80;50.77;97691.91;4832102;29;20481;-92
2022/05/28 11:00:42;;;;;;;0.93;0.93;;;;;;;17.63;48.03;97689.06;4823030;29;20061;-89
2022/05/28 11:03:23;;;;;;;0.40;0.40;;;;;;;17.09;45.89;97703.03;4809426;29;20102;-91
2022/05/28 11:06:17;;;;;;;0.70;0.70;;;;;;;16.60;49.22;97704.16;4813838;29;20057;-90
2022/05/28 11:09:08;;;;;;;0.90;0.90;;;;;;;16.89;45.64;97688.09;4812821;29;20089;-93
2022/05/28 11:11:38;;;;;;;1.00;1.00;;;;;;;17.51;44.69;97702.56;4821833;29;20058;-93
2022/05/28 11:14:11;;;;;;;1.00;1.00;;;;;;;18.41;43.21;97704.50;4831057;29;20062;-92
2022/05/28 11:16:58;;;;;;;1.00;1.00;;;;;;;18.40;42.65;97709.13;4839810;29;20160;-91
2022/05/28 11:19:44;;;;;;;0.50;0.50;;;;;;;18.48;43.81;97723.88;4832034;29;20061;-90
2022/05/28 11:22:40;;;;;;;0.80;0.80;;;;;;;17.09;46.10;97702.22;4904469;29;20048;-91
2022/05/28 11:25:23;;;;;;;0.90;0.90;;;;;;;18.05;44.42;97707.66;4862266;29;20151;-91
2022/05/28 11:28:15;;;;;;;0.80;0.80;;;;;;;18.91;40.88;97709.25;4905568;29;20055;-90
2022/05/28 11:30:45;;;;;;;0.70;0.70;;;;;;;18.45;41.17;97713.63;4916863;29;20055;-91
2022/05/28 11:33:25;;;;;;;0.50;0.50;;;;;;;16.61;45.31;97714.75;4931074;29;20032;-91
2022/05/28 11:35:59;;;;;;;1.00;1.00;;;;;;;17.37;43.98;97718.28;4932792;29;20078;-91
2022/05/28 11:38:54;;;;;;;1.00;1.00;;;;;;;18.41;40.36;97724.41;4935219;29;20068;-91
2022/05/28 11:41:32;;;;;;;0.90;0.90;;;;;;;18.71;39.84;97729.09;4933559;29;20058;-90
2022/05/28 11:44:04;;;;;;;0.40;0.40;;;;;;;17.41;40.96;97736.41;4928696;29;20068;-90
2022/05/28 11:46:45;;;;;;;0.90;0.90;;;;;;;17.22;42.74;97735.94;4932767;29;20575;-92
2022/05/28 11:52:21;;;;;;;0.50;0.50;;;;;;;17.83;42.98;97714.13;4918714;29;20463;-91
2022/05/28 11:54:54;;;;;;;0.60;0.60;;;;;;;18.19;42.37;97738.28;4933495;29;20055;-91
2022/05/28 11:57:25;;;;;;;0.50;0.50;;;;;;;18.75;41.61;97733.63;4921831;29;20060;-90
2022/05/28 11:59:52;;;;;;;0.40;0.40;;;;;;;19.04;41.03;97746.50;4923405;29;20051;-91
2022/05/28 12:02:26;;;;;;;0.80;0.80;;;;;;;18.82;41.03;97724.91;4933403;29;20070;-91
2022/05/28 12:04:53;;;;;;;0.70;0.70;;;;;;;19.20;39.83;97733.03;4915918;29;20135;-91
2022/05/28 12:07:39;;;;;;;0.50;0.50;;;;;;;19.03;40.33;97766.75;4923859;29;20052;-91
2022/05/28 12:10:30;;;;;;;0.60;0.60;;;;;;;17.70;42.89;97740.44;4906677;29;20502;-92